Time;durP1;ratioP1;P1;durP2;ratioP2;P2;SDS_P1;SDS_P2;PMS_P1;PMS_P2;Temp;Humidity;BMP_temperature;BMP_pressure;BME280_temperature;BME280_humidity;BME280_pressure;Samples;Min_cycle;Max_cycle;Signal;HPM_P1;HPM_P2
2021/06/30 00:00:11;;;;;;;2.87;2.03;;;;;;;15.76;80.76;101163.41;5075252;28;20021;-40
2021/06/30 00:02:37;;;;;;;;;;;;;;;15.86;79.78;101157.22;5075804;28;20282;-40
2021/06/30 00:05:03;;;;;;;3.33;2.10;;;;;;;15.68;81.05;101148.38;5073829;28;20268;-40
2021/06/30 00:07:29;;;;;;;3.35;2.20;;;;;;;15.74;81.04;101148.41;5075828;28;20436;-40
2021/06/30 00:09:54;;;;;;;;;;;;;;;15.89;79.21;101156.72;5076071;28;20056;-40
2021/06/30 00:12:20;;;;;;;2.93;1.83;;;;;;;15.84;80.45;101156.69;5075336;28;19920;-40
2021/06/30 00:14:46;;;;;;;3.53;1.97;;;;;;;15.76;80.85;101152.50;5075532;28;20740;-40
2021/06/30 00:17:12;;;;;;;2.60;2.40;;;;;;;15.49;81.69;101163.38;5075081;28;20270;-40
2021/06/30 00:19:38;;;;;;;2.88;2.35;;;;;;;15.61;81.53;101153.16;5107768;28;20461;-40
2021/06/30 00:22:04;;;;;;;5.22;2.60;;;;;;;15.57;81.52;101149.31;5075312;28;20036;-40
2021/06/30 00:24:29;;;;;;;3.28;2.42;;;;;;;15.59;81.60;101149.88;5075034;28;20522;-40
2021/06/30 00:26:54;;;;;;;2.97;2.40;;;;;;;15.61;81.09;101147.69;5075218;28;20020;-40
2021/06/30 00:29:20;;;;;;;3.15;2.70;;;;;;;15.66;81.32;101147.81;5075417;28;20055;-40
2021/06/30 00:31:45;;;;;;;3.25;2.55;;;;;;;15.72;81.33;101151.41;5075385;28;20070;-40
2021/06/30 00:34:10;;;;;;;2.92;2.60;;;;;;;15.59;81.22;101138.16;5074635;28;20021;-40
2021/06/30 00:36:44;;;;;;;3.45;2.80;;;;;;;15.66;81.18;101134.19;5074082;28;20401;-41
2021/06/30 00:39:10;;;;;;;3.78;2.53;;;;;;;15.61;81.54;101139.50;5074742;28;20154;-41
2021/06/30 00:41:35;;;;;;;4.40;2.65;;;;;;;15.54;82.02;101143.53;5075209;28;20028;-41
2021/06/30 00:44:01;;;;;;;3.33;2.60;;;;;;;15.47;81.71;101149.22;5074380;28;20102;-40
2021/06/30 00:46:31;;;;;;;2.30;2.10;;;;;;;15.44;81.67;101139.63;5074909;28;20020;-41
2021/06/30 00:48:58;;;;;;;3.08;2.45;;;;;;;15.53;82.04;101148.19;5074485;28;20114;-41
2021/06/30 00:51:24;;;;;;;2.53;2.03;;;;;;;15.48;82.02;101139.94;5073433;28;20025;-41
2021/06/30 00:53:51;;;;;;;2.67;2.30;;;;;;;15.46;81.74;101147.53;5074394;28;20032;-41
2021/06/30 00:56:22;;;;;;;2.38;1.90;;;;;;;15.50;81.41;101143.22;5074382;28;20032;-41
2021/06/30 00:58:53;;;;;;;2.20;1.95;;;;;;;15.43;81.28;101143.44;5074597;28;20017;-41
2021/06/30 01:01:20;;;;;;;3.30;2.13;;;;;;;15.52;82.13;101149.25;5074828;28;20027;-41
2021/06/30 01:03:48;;;;;;;3.10;1.90;;;;;;;15.41;82.05;101150.22;5074150;28;20151;-41
2021/06/30 01:06:14;;;;;;;3.00;1.70;;;;;;;15.39;81.97;101141.47;5074194;28;20028;-40
2021/06/30 01:08:40;;;;;;;;;;;;;;;15.62;80.14;101148.53;5074239;28;20027;-41
2021/06/30 01:11:05;;;;;;;2.47;2.00;;;;;;;15.48;81.12;101153.56;5074111;28;19948;-41
2021/06/30 01:13:31;;;;;;;2.15;1.75;;;;;;;15.46;81.32;101156.53;5074503;28;20409;-41
2021/06/30 01:15:56;;;;;;;;;;;;;;;15.54;79.95;101152.53;5074431;28;20036;-41
2021/06/30 01:18:23;;;;;;;4.20;2.30;;;;;;;15.33;81.75;101150.69;5074436;28;19958;-41
2021/06/30 01:20:50;;;;;;;3.85;1.50;;;;;;;15.30;81.51;101145.72;5074423;28;20235;-41
2021/06/30 01:23:15;;;;;;;1.83;1.30;;;;;;;15.19;81.59;101156.50;5074289;28;20368;-41
2021/06/30 01:25:41;;;;;;;3.03;1.58;;;;;;;15.25;82.27;101153.84;5074135;28;20025;-41
2021/06/30 01:28:07;;;;;;;2.83;1.67;;;;;;;15.27;81.92;101152.50;5073722;28;20509;-41
2021/06/30 01:30:32;;;;;;;2.47;1.58;;;;;;;15.22;82.22;101148.91;5073781;28;20182;-41
2021/06/30 01:32:59;;;;;;;2.65;1.70;;;;;;;15.33;81.10;101143.34;5073602;28;20059;-41
2021/06/30 01:35:26;;;;;;;3.00;1.70;;;;;;;15.28;81.58;101139.72;5072430;28;20032;-41
2021/06/30 01:37:51;;;;;;;2.60;1.85;;;;;;;15.32;81.55;101143.56;5073355;28;20028;-41
2021/06/30 01:40:18;;;;;;;;;;;;;;;15.49;80.62;101127.97;5074673;28;20025;-41
2021/06/30 01:42:47;;;;;;;2.72;1.80;;;;;;;15.42;80.81;101127.31;5073551;28;19908;-41
2021/06/30 01:45:13;;;;;;;2.80;2.17;;;;;;;15.28;81.21;101126.09;5073297;28;20213;-41
2021/06/30 01:47:39;;;;;;;;;;;;;;;15.48;80.32;101130.94;5073338;28;20020;-41
2021/06/30 01:50:06;;;;;;;2.22;1.80;;;;;;;15.34;81.22;101128.63;5073088;28;20371;-42
2021/06/30 01:52:32;;;;;;;3.67;2.17;;;;;;;15.39;80.94;101122.41;5073276;28;20024;-41
2021/06/30 01:54:57;;;;;;;2.50;2.20;;;;;;;15.32;80.70;101125.31;5072530;28;20040;-41
2021/06/30 01:57:23;;;;;;;3.08;2.15;;;;;;;15.19;81.92;101123.81;5073400;28;20259;-41
2021/06/30 01:59:48;;;;;;;3.53;2.53;;;;;;;15.22;81.48;101121.66;5073673;28;20075;-41
2021/06/30 02:02:14;;;;;;;2.50;2.30;;;;;;;15.13;82.19;101115.84;5073357;28;20030;-41
2021/06/30 02:04:41;;;;;;;4.78;2.67;;;;;;;15.26;82.20;101125.53;5073636;28;20021;-41
2021/06/30 02:07:06;;;;;;;2.78;2.08;;;;;;;15.16;82.24;101127.03;5073337;28;20066;-41
2021/06/30 02:09:32;;;;;;;3.50;2.10;;;;;;;15.06;82.37;101124.22;5073279;28;20024;-41
2021/06/30 02:11:58;;;;;;;3.67;2.28;;;;;;;15.11;82.41;101116.09;5073265;28;20048;-41
2021/06/30 02:14:23;;;;;;;;;;;;;;;15.25;80.79;101104.81;5073709;28;20105;-41
2021/06/30 02:16:49;;;;;;;2.83;1.97;;;;;;;15.00;82.68;101114.34;5073428;28;20353;-41
2021/06/30 02:19:14;;;;;;;3.47;2.00;;;;;;;15.06;82.78;101113.31;5073157;28;20595;-41
2021/06/30 02:21:39;;;;;;;2.73;2.10;;;;;;;15.00;82.65;101110.78;5073666;28;20032;-40
2021/06/30 02:24:06;;;;;;;3.03;2.35;;;;;;;14.94;83.41;101115.34;5073334;28;20293;-40
2021/06/30 02:26:34;;;;;;;2.90;2.20;;;;;;;14.91;83.43;101102.25;5073686;28;20098;-40
2021/06/30 02:29:00;;;;;;;4.20;2.20;;;;;;;14.84;84.01;101112.50;5072784;28;20024;-41
2021/06/30 02:31:25;;;;;;;2.55;2.35;;;;;;;14.93;84.03;101108.25;5072821;28;20012;-41
2021/06/30 02:33:51;;;;;;;3.20;2.10;;;;;;;14.82;84.27;101101.84;5073061;28;20020;-40
2021/06/30 02:36:17;;;;;;;2.65;1.80;;;;;;;14.88;83.67;101089.97;5072785;28;20028;-40
2021/06/30 02:38:43;;;;;;;1.83;1.70;;;;;;;14.92;83.52;101091.09;5072996;28;20055;-40
2021/06/30 02:41:08;;;;;;;2.80;1.70;;;;;;;14.78;84.11;101089.00;5073290;28;20020;-41
2021/06/30 02:43:34;;;;;;;2.03;1.83;;;;;;;14.86;83.74;101088.56;5072674;28;20262;-40
2021/06/30 02:45:59;;;;;;;2.13;1.73;;;;;;;14.85;83.83;101092.38;5073276;28;20017;-41
2021/06/30 02:48:25;;;;;;;2.22;2.00;;;;;;;14.86;84.25;101094.81;5072665;28;20459;-40
2021/06/30 02:50:51;;;;;;;;;;;;;;;14.90;83.13;101098.69;5073405;28;20344;-40
2021/06/30 02:53:17;;;;;;;2.22;1.73;;;;;;;14.67;84.24;101093.50;5073517;28;19999;-40
2021/06/30 02:55:42;;;;;;;1.73;1.60;;;;;;;14.65;84.21;101092.94;5073207;28;20052;-40
2021/06/30 02:58:08;;;;;;;2.10;1.83;;;;;;;14.65;84.83;101099.19;5073334;28;20259;-40
2021/06/30 03:00:33;;;;;;;2.85;1.92;;;;;;;14.61;84.65;101102.66;5076332;28;20036;-40
2021/06/30 03:02:58;;;;;;;2.70;1.97;;;;;;;14.60;84.88;101090.97;5076515;28;20054;-40
2021/06/30 03:05:24;;;;;;;2.95;2.10;;;;;;;14.61;85.02;101100.75;5076864;28;20298;-40
2021/06/30 03:07:52;;;;;;;2.55;2.13;;;;;;;14.67;85.25;101094.31;5076721;28;20440;-40
2021/06/30 03:10:19;;;;;;;3.13;2.55;;;;;;;14.61;85.57;101095.31;5076435;28;20533;-40
2021/06/30 03:12:45;;;;;;;2.72;2.17;;;;;;;14.71;85.11;101091.91;5076513;28;20049;-40
2021/06/30 03:15:11;;;;;;;2.30;2.08;;;;;;;14.69;85.08;101096.81;5076137;28;20047;-40
2021/06/30 03:17:37;;;;;;;;;;;;;;;14.85;83.65;101093.19;5076662;28;20395;-40
2021/06/30 03:20:06;;;;;;;3.00;2.20;;;;;;;14.83;84.74;101098.03;5075988;28;19919;-40
2021/06/30 03:22:31;;;;;;;3.45;2.47;;;;;;;14.78;84.84;101097.16;5109039;28;20059;-40
2021/06/30 03:24:58;;;;;;;3.30;2.40;;;;;;;14.80;84.61;101108.63;5076963;28;20025;-40
2021/06/30 03:27:23;;;;;;;2.80;2.50;;;;;;;14.80;84.86;101103.19;5076102;28;20036;-40
2021/06/30 03:29:49;;;;;;;3.13;2.65;;;;;;;14.83;84.81;101108.13;5076362;28;20024;-40
2021/06/30 03:32:14;;;;;;;3.97;3.50;;;;;;;14.78;84.80;101106.16;5075991;28;20427;-40
2021/06/30 03:34:39;;;;;;;3.60;3.22;;;;;;;14.77;84.79;101114.56;5076344;28;20032;-40
2021/06/30 03:37:05;;;;;;;6.13;3.97;;;;;;;14.67;84.54;101110.63;5076019;28;20028;-40
2021/06/30 03:39:30;;;;;;;4.40;3.80;;;;;;;14.58;84.90;101114.88;5075914;28;20024;-40
2021/06/30 03:41:55;;;;;;;4.20;3.72;;;;;;;14.64;84.98;101115.75;5076211;28;20028;-40
2021/06/30 03:44:21;;;;;;;6.07;3.87;;;;;;;14.59;85.40;101119.25;5074855;28;20021;-40
2021/06/30 03:46:46;;;;;;;6.67;4.17;;;;;;;14.64;84.93;101118.47;5076157;28;20535;-40
2021/06/30 03:49:11;;;;;;;4.00;3.37;;;;;;;14.64;85.32;101118.47;5075490;28;20271;-40
2021/06/30 03:51:37;;;;;;;5.30;4.07;;;;;;;14.67;85.24;101110.63;5075684;28;20354;-40
2021/06/30 03:54:03;;;;;;;5.38;3.78;;;;;;;14.68;84.84;101115.00;5075684;28;20040;-41
2021/06/30 03:56:29;;;;;;;5.50;4.10;;;;;;;14.66;85.23;101121.78;5075617;28;20024;-40
2021/06/30 03:58:55;;;;;;;5.18;4.68;;;;;;;14.65;85.05;101128.31;5075227;28;20016;-40
2021/06/30 04:01:24;;;;;;;5.80;4.80;;;;;;;14.52;85.75;101126.75;5075548;28;20064;-40
2021/06/30 04:03:59;;;;;;;6.47;5.57;;;;;;;14.52;86.02;101129.47;5075934;28;20024;-40
2021/06/30 04:06:24;;;;;;;6.07;5.28;;;;;;;14.62;85.88;101126.91;5075646;28;20464;-40
2021/06/30 04:08:50;;;;;;;8.93;5.65;;;;;;;14.57;85.50;101126.81;5075503;28;20032;-40
2021/06/30 04:11:16;;;;;;;7.15;6.45;;;;;;;14.50;85.91;101130.81;5075486;28;20024;-40
2021/06/30 04:13:42;;;;;;;6.97;5.70;;;;;;;14.53;85.57;101130.31;5075047;28;20423;-40
2021/06/30 04:16:08;;;;;;;;;;;;;;;14.66;84.66;101132.69;5075725;28;20372;-41
2021/06/30 04:18:33;;;;;;;6.65;6.05;;;;;;;14.52;85.39;101129.47;5075141;28;19914;-40
2021/06/30 04:20:59;;;;;;;7.47;6.78;;;;;;;14.52;85.67;101132.19;5075673;28;20034;-40
2021/06/30 04:23:24;;;;;;;7.57;6.28;;;;;;;14.47;85.76;101121.22;5075081;28;20023;-40
2021/06/30 04:25:50;;;;;;;6.73;5.80;;;;;;;14.55;85.81;101129.00;5074838;28;20086;-40
2021/06/30 04:28:15;;;;;;;11.77;6.27;;;;;;;14.48;85.84;101127.50;5075192;28;20278;-40
2021/06/30 04:30:42;;;;;;;6.70;6.10;;;;;;;14.38;86.04;101115.38;5074713;28;20258;-40
2021/06/30 04:33:07;;;;;;;6.85;6.13;;;;;;;14.37;86.35;101118.34;5073566;28;20377;-40
2021/06/30 04:35:33;;;;;;;7.45;6.15;;;;;;;14.37;86.69;101115.63;5075204;28;20032;-40
2021/06/30 04:38:03;;;;;;;;;;;;;;;14.44;85.80;101121.69;5075476;28;20399;-40
2021/06/30 04:40:28;;;;;;;7.03;6.32;;;;;;;14.28;87.11;101117.13;5074457;28;19995;-40
2021/06/30 04:42:53;;;;;;;7.72;5.75;;;;;;;14.26;86.88;101120.09;5074965;28;20107;-40
2021/06/30 04:45:19;;;;;;;5.88;5.22;;;;;;;14.26;87.22;101119.28;5075500;28;20051;-40
2021/06/30 04:47:44;;;;;;;6.20;5.07;;;;;;;14.23;86.98;101122.47;5074619;28;20025;-40
2021/06/30 04:50:11;;;;;;;7.20;5.67;;;;;;;14.25;87.10;101120.31;5074626;28;20270;-40
2021/06/30 04:52:36;;;;;;;6.40;5.80;;;;;;;14.25;87.12;101118.44;5074697;28;20483;-40
2021/06/30 04:55:02;;;;;;;6.33;5.73;;;;;;;14.25;87.32;101121.16;5075085;28;20025;-40
2021/06/30 04:57:28;;;;;;;8.43;6.47;;;;;;;14.28;87.37;101120.66;5074377;28;20103;-40
2021/06/30 04:59:53;;;;;;;6.77;6.10;;;;;;;14.24;87.42;101115.97;5073632;28;20476;-40
2021/06/30 05:02:18;;;;;;;7.50;6.80;;;;;;;14.26;87.34;101127.44;5074415;28;20086;-40
2021/06/30 05:04:43;;;;;;;7.60;6.90;;;;;;;14.17;87.29;101116.97;5074314;28;20258;-40
2021/06/30 05:07:09;;;;;;;7.50;6.37;;;;;;;14.25;87.72;101125.75;5074253;28;20025;-40
2021/06/30 05:09:34;;;;;;;8.52;6.88;;;;;;;14.20;87.92;101125.69;5074540;28;20020;-40
2021/06/30 05:12:00;;;;;;;7.17;6.47;;;;;;;14.26;87.73;101124.72;5072983;28;20052;-40
2021/06/30 05:14:25;;;;;;;7.17;6.47;;;;;;;14.29;87.15;101127.75;5074183;28;20607;-40
2021/06/30 05:16:50;;;;;;;6.87;6.17;;;;;;;14.26;87.32;101127.44;5074352;28;20063;-40
2021/06/30 05:19:16;;;;;;;8.05;7.25;;;;;;;14.34;87.27;101127.81;5074249;28;20031;-40
2021/06/30 05:21:41;;;;;;;6.63;6.03;;;;;;;14.38;87.22;101128.16;5073809;28;20028;-40
2021/06/30 05:24:07;;;;;;;7.40;6.70;;;;;;;14.39;86.67;101118.91;5074128;28;20035;-40
2021/06/30 05:26:32;;;;;;;6.40;5.80;;;;;;;14.29;86.74;101130.47;5074688;28;20373;-40
2021/06/30 05:28:57;;;;;;;7.20;6.50;;;;;;;14.40;87.03;101132.28;5073854;28;20448;-40
2021/06/30 05:31:23;;;;;;;6.17;5.53;;;;;;;14.38;86.70;101122.72;5073897;28;20073;-40
2021/06/30 05:33:48;;;;;;;6.60;5.90;;;;;;;14.37;86.68;101127.31;5074145;28;20263;-40
2021/06/30 05:36:13;;;;;;;6.57;5.90;;;;;;;14.44;86.68;101129.88;5073846;28;20028;-40
2021/06/30 05:38:39;;;;;;;5.80;5.30;;;;;;;14.47;86.25;101123.13;5074030;28;20096;-40
2021/06/30 05:41:04;;;;;;;5.72;5.20;;;;;;;14.47;86.16;101121.22;5074048;28;20295;-41
2021/06/30 05:43:30;;;;;;;5.63;5.13;;;;;;;14.50;85.66;101126.19;5073410;28;20032;-41
2021/06/30 05:45:55;;;;;;;5.00;4.50;;;;;;;14.47;85.99;101129.38;5074180;28;20255;-40
2021/06/30 05:48:21;;;;;;;6.43;5.35;;;;;;;14.40;86.27;101126.03;5073638;28;20104;-40
2021/06/30 05:50:46;;;;;;;6.22;4.85;;;;;;;14.51;86.11;101129.75;5074115;28;20035;-40
2021/06/30 05:53:11;;;;;;;5.00;4.60;;;;;;;14.51;86.29;101135.19;5073500;28;20111;-40
2021/06/30 05:55:37;;;;;;;4.53;4.13;;;;;;;14.56;86.37;101130.63;5073873;28;20023;-40
2021/06/30 05:58:03;;;;;;;5.78;4.55;;;;;;;14.55;85.72;101137.16;5073531;28;20263;-40
2021/06/30 06:00:28;;;;;;;5.00;4.50;;;;;;;14.53;85.14;101130.31;5073825;28;20024;-40
2021/06/30 06:02:53;;;;;;;7.00;3.97;;;;;;;14.49;85.80;101134.59;5073510;28;20449;-40
2021/06/30 06:05:19;;;;;;;4.67;4.03;;;;;;;14.45;85.49;101134.25;5073525;28;20251;-40
2021/06/30 06:07:44;;;;;;;4.63;4.23;;;;;;;14.54;85.59;101138.22;5073870;28;20040;-40
2021/06/30 06:10:10;;;;;;;4.78;4.30;;;;;;;14.47;85.69;101142.97;5073436;28;20262;-40
2021/06/30 06:12:36;;;;;;;5.55;4.72;;;;;;;14.48;86.25;101138.38;5073232;28;20136;-41
2021/06/30 06:15:03;;;;;;;6.53;5.03;;;;;;;14.46;86.11;101137.81;5074011;28;20115;-40
2021/06/30 06:17:29;;;;;;;5.38;4.85;;;;;;;14.44;86.44;101138.03;5073422;28;20385;-40
2021/06/30 06:19:54;;;;;;;5.00;4.57;;;;;;;14.47;86.17;101136.72;5073502;28;20020;-40
2021/06/30 06:22:19;;;;;;;5.22;4.72;;;;;;;14.39;86.15;101136.06;5073246;28;20387;-40
2021/06/30 06:24:45;;;;;;;5.60;5.00;;;;;;;14.50;85.59;101131.63;5073365;28;20029;-40
2021/06/30 06:27:10;;;;;;;5.23;4.60;;;;;;;14.60;86.25;101136.41;5073504;28;20782;-40
2021/06/30 06:29:36;;;;;;;5.20;3.95;;;;;;;14.61;86.14;101136.16;5073450;28;20120;-40
2021/06/30 06:32:02;;;;;;;4.97;4.47;;;;;;;14.58;86.08;101142.06;5072844;28;20031;-40
2021/06/30 06:34:28;;;;;;;4.40;4.00;;;;;;;14.59;86.77;101141.03;5076459;28;20107;-40
2021/06/30 06:36:54;;;;;;;4.97;4.40;;;;;;;14.71;86.74;101142.81;5077477;28;20475;-41
2021/06/30 06:39:21;;;;;;;5.25;4.82;;;;;;;14.60;86.22;101139.94;5077373;28;20028;-40
2021/06/30 06:41:47;;;;;;;5.45;4.95;;;;;;;14.66;86.47;101140.84;5077507;28;20474;-41
2021/06/30 06:44:13;;;;;;;5.22;4.72;;;;;;;14.63;86.18;101144.06;5077041;28;20024;-40
2021/06/30 06:46:39;;;;;;;4.88;4.38;;;;;;;14.63;86.14;101142.16;5077008;28;20321;-40
2021/06/30 06:49:05;;;;;;;;;;;;;;;14.70;84.92;101144.72;5077027;28;20044;-40
2021/06/30 06:51:31;;;;;;;4.50;4.03;;;;;;;14.58;85.68;101149.41;5076873;28;19904;-40
2021/06/30 06:53:56;;;;;;;4.65;4.25;;;;;;;14.57;85.31;101147.78;5076830;28;20029;-40
2021/06/30 06:56:26;;;;;;;4.53;4.13;;;;;;;14.54;85.27;101148.28;5076878;28;20509;-40
2021/06/30 06:58:52;;;;;;;4.82;4.43;;;;;;;14.53;85.28;101147.44;5076703;28;20027;-40
2021/06/30 07:01:17;;;;;;;3.97;3.67;;;;;;;14.58;86.00;101144.78;5077222;28;20020;-40
2021/06/30 07:03:42;;;;;;;5.60;4.15;;;;;;;14.36;86.10;101143.91;5076347;28;20476;-40
2021/06/30 07:06:08;;;;;;;4.93;3.80;;;;;;;14.46;86.41;101146.78;5076624;28;20056;-40
2021/06/30 07:08:33;;;;;;;4.80;4.40;;;;;;;14.42;86.47;101151.88;5076548;28;20056;-40
2021/06/30 07:10:59;;;;;;;5.05;4.55;;;;;;;14.41;86.11;101143.97;5076494;28;20029;-40
2021/06/30 07:13:24;;;;;;;5.10;4.70;;;;;;;14.48;86.58;101155.53;5076882;28;20066;-40
2021/06/30 07:15:49;;;;;;;5.33;4.83;;;;;;;14.48;86.16;101152.00;5076689;28;20070;-40
2021/06/30 07:18:16;;;;;;;5.00;4.60;;;;;;;14.49;86.48;101159.06;5076392;28;20266;-40
2021/06/30 07:20:41;;;;;;;;;;;;;;;14.59;85.45;101157.34;5076777;28;20251;-40
2021/06/30 07:23:07;;;;;;;5.43;3.90;;;;;;;14.57;85.63;101156.75;5076458;28;20302;-40
2021/06/30 07:25:32;;;;;;;3.75;3.45;;;;;;;14.48;85.94;101160.97;5077123;28;20032;-41
2021/06/30 07:27:57;;;;;;;4.20;3.80;;;;;;;14.57;85.88;101161.38;5076198;28;20028;-41
2021/06/30 07:30:23;;;;;;;4.47;3.33;;;;;;;14.55;85.65;101161.66;5076645;28;20115;-40
2021/06/30 07:32:48;;;;;;;3.80;3.50;;;;;;;14.64;85.70;101164.75;5076006;28;20060;-40
2021/06/30 07:35:14;;;;;;;4.30;3.10;;;;;;;14.61;85.72;101166.09;5076331;28;20020;-40
2021/06/30 07:37:39;;;;;;;4.17;3.83;;;;;;;14.57;85.53;101164.94;5075735;28;20028;-40
2021/06/30 07:40:06;;;;;;;5.45;3.60;;;;;;;14.61;84.96;101176.97;5075954;28;20262;-40
2021/06/30 07:42:32;;;;;;;3.67;3.38;;;;;;;14.59;84.56;101172.84;5075480;28;20029;-40
2021/06/30 07:44:57;;;;;;;3.90;3.42;;;;;;;14.62;85.13;101169.63;5075381;28;20467;-41
2021/06/30 07:47:22;;;;;;;4.65;4.13;;;;;;;14.57;84.77;101173.09;5076373;28;20039;-40
2021/06/30 07:49:48;;;;;;;4.20;3.80;;;;;;;14.70;84.99;101171.13;5075767;28;20029;-40
2021/06/30 07:52:13;;;;;;;4.53;3.77;;;;;;;14.70;84.48;101169.22;5075707;28;20032;-40
2021/06/30 07:54:38;;;;;;;4.17;3.80;;;;;;;14.59;84.96;101176.41;5076035;28;20329;-41
2021/06/30 07:57:04;;;;;;;4.43;4.03;;;;;;;14.58;85.00;101179.34;5076245;28;20059;-40
2021/06/30 07:59:29;;;;;;;4.57;4.15;;;;;;;14.57;85.41;101192.16;5075823;28;20278;-40
2021/06/30 08:01:55;;;;;;;4.03;3.63;;;;;;;14.58;85.23;101188.34;5075524;28;20032;-40
2021/06/30 08:04:20;;;;;;;4.07;3.67;;;;;;;14.70;85.25;101185.53;5075678;28;20050;-40
2021/06/30 08:06:46;;;;;;;4.53;3.70;;;;;;;14.80;85.54;101190.31;5075432;28;20021;-40
2021/06/30 08:09:11;;;;;;;3.92;3.53;;;;;;;14.83;84.91;101190.59;5075671;28;20032;-40
2021/06/30 08:11:36;;;;;;;3.73;3.43;;;;;;;14.85;84.48;101187.66;5075331;28;20444;-40
2021/06/30 08:14:02;;;;;;;3.90;3.60;;;;;;;14.85;84.62;101187.66;5075660;28;20795;-40
2021/06/30 08:16:27;;;;;;;3.88;3.58;;;;;;;14.82;84.34;101182.69;5075564;28;20399;-41
2021/06/30 08:18:52;;;;;;;3.33;3.03;;;;;;;14.93;84.12;101187.19;5075246;28;20035;-41
2021/06/30 08:21:18;;;;;;;3.88;3.55;;;;;;;14.95;83.90;101185.06;5074938;28;20373;-40
2021/06/30 08:23:44;;;;;;;4.13;3.72;;;;;;;14.87;84.10;101186.31;5075071;28;20025;-41
2021/06/30 08:26:12;;;;;;;3.55;3.13;;;;;;;14.92;84.88;101193.72;5075182;28;20039;-41
2021/06/30 08:28:38;;;;;;;4.13;3.40;;;;;;;14.91;84.58;101194.81;5073915;28;20021;-41
2021/06/30 08:31:03;;;;;;;;;;;;;;;15.06;83.99;101188.75;5075110;28;20024;-41
2021/06/30 08:33:29;;;;;;;3.17;2.88;;;;;;;15.04;84.82;101183.56;5074740;28;19915;-40
2021/06/30 08:35:55;;;;;;;3.83;3.40;;;;;;;15.10;83.88;101184.44;5075466;28;20100;-40
2021/06/30 08:38:21;;;;;;;4.05;3.70;;;;;;;15.06;85.11;101181.41;5074770;28;20043;-40
2021/06/30 08:40:47;;;;;;;3.50;3.20;;;;;;;15.23;83.91;101191.44;5075066;28;20511;-40
2021/06/30 08:43:14;;;;;;;4.85;3.85;;;;;;;15.22;83.98;101181.59;5074694;28;20396;-41
2021/06/30 08:45:41;;;;;;;3.90;3.60;;;;;;;15.33;83.69;101188.84;5074466;28;20368;-41
2021/06/30 08:48:08;;;;;;;4.25;3.85;;;;;;;15.28;83.60;101191.50;5074340;28;20048;-41
2021/06/30 08:50:36;;;;;;;3.97;3.33;;;;;;;15.22;82.99;101189.75;5075171;28;20020;-40
2021/06/30 08:53:02;;;;;;;3.72;3.42;;;;;;;15.25;83.56;101186.53;5074399;28;20403;-40
2021/06/30 08:55:27;;;;;;;4.10;3.70;;;;;;;15.30;83.70;101184.69;5074568;28;20029;-40
2021/06/30 08:57:52;;;;;;;3.80;3.50;;;;;;;15.31;83.45;101190.97;5074055;28;20032;-40
2021/06/30 09:00:18;;;;;;;4.30;4.00;;;;;;;15.34;83.92;101191.28;5074681;28;20021;-40
2021/06/30 09:02:46;;;;;;;4.68;4.28;;;;;;;15.33;84.21;101188.84;5074245;28;20279;-40
2021/06/30 09:07:51;;;;;;;4.85;4.45;;;;;;;15.43;82.84;101199.84;5074766;28;20033;-40
2021/06/30 09:10:49;;;;;;;5.00;4.53;;;;;;;15.46;83.70;101210.22;5073877;28;20099;-40
2021/06/30 09:13:22;;;;;;;4.43;4.03;;;;;;;15.38;83.21;101197.88;5052024;28;20492;-40
2021/06/30 09:15:59;;;;;;;4.70;4.30;;;;;;;15.43;83.57;101210.75;5052103;28;20032;-40
2021/06/30 09:21:15;;;;;;;5.20;4.70;;;;;;;15.46;83.75;101215.66;5052204;28;20044;-40
2021/06/30 09:24:11;;;;;;;5.55;5.05;;;;;;;15.33;83.88;101211.44;5051715;28;20033;-40
2021/06/30 09:26:49;;;;;;;5.93;5.43;;;;;;;15.25;84.46;101213.78;5051505;28;20461;-40
2021/06/30 09:29:16;;;;;;;5.43;4.93;;;;;;;15.29;84.17;101207.56;5051634;28;20354;-40
2021/06/30 09:31:45;;;;;;;5.22;4.75;;;;;;;15.28;84.78;101211.38;5051734;28;20104;-40
2021/06/30 09:34:10;;;;;;;5.35;4.85;;;;;;;15.36;84.52;101207.38;5051955;28;20462;-40
2021/06/30 09:36:47;;;;;;;5.10;4.63;;;;;;;15.35;84.08;101217.44;5051617;28;20043;-40
2021/06/30 09:39:13;;;;;;;5.35;4.93;;;;;;;15.27;83.76;101228.78;5051924;28;20457;-40
2021/06/30 09:41:43;;;;;;;4.63;4.22;;;;;;;15.32;84.29;101217.94;5051530;28;20405;-40
2021/06/30 09:44:12;;;;;;;4.47;4.07;;;;;;;15.29;83.41;101225.81;5051244;28;20436;-40
2021/06/30 09:46:41;;;;;;;4.50;3.88;;;;;;;15.24;84.03;101225.75;5051805;28;20029;-40
2021/06/30 09:49:20;;;;;;;5.10;4.70;;;;;;;15.20;84.19;101220.81;5064959;28;20040;-40
2021/06/30 09:51:47;;;;;;;6.10;5.60;;;;;;;15.27;85.03;101217.06;5073998;28;20062;-40
2021/06/30 09:54:16;;;;;;;6.78;6.18;;;;;;;15.28;85.80;101219.56;5073392;28;20029;-40
2021/06/30 09:57:01;;;;;;;6.13;5.53;;;;;;;15.44;85.57;101220.56;5073908;28;20028;-41
2021/06/30 09:59:30;;;;;;;5.70;5.20;;;;;;;15.37;84.18;101225.38;5073608;28;20051;-40
2021/06/30 10:02:01;;;;;;;5.45;4.97;;;;;;;15.45;84.32;101230.38;5073421;28;20123;-40
2021/06/30 10:04:34;;;;;;;4.63;4.28;;;;;;;15.35;83.34;101233.81;5073839;28;20026;-40
2021/06/30 10:07:22;;;;;;;4.30;3.90;;;;;;;15.35;84.15;101231.06;5073475;28;20025;-40
2021/06/30 10:09:47;;;;;;;4.47;4.07;;;;;;;15.36;84.48;101227.28;5073823;28;20032;-40
2021/06/30 10:12:18;;;;;;;4.57;4.10;;;;;;;15.36;83.99;101242.81;5073381;28;20029;-40
2021/06/30 10:14:45;;;;;;;4.20;3.80;;;;;;;15.29;83.91;101232.09;5073132;28;20040;-40
2021/06/30 10:17:12;;;;;;;4.85;4.45;;;;;;;15.26;84.59;101242.66;5073569;28;20116;-40
2021/06/30 10:19:40;;;;;;;4.18;3.72;;;;;;;15.25;85.43;101232.84;5073136;28;20074;-40
2021/06/30 10:22:07;;;;;;;4.55;4.15;;;;;;;15.27;84.77;101241.59;5073487;28;20028;-40
2021/06/30 10:24:33;;;;;;;4.90;4.45;;;;;;;15.40;85.30;101238.50;5073189;28;20112;-40
2021/06/30 10:26:58;;;;;;;4.47;4.07;;;;;;;15.53;84.62;101235.41;5073940;28;20060;-40
2021/06/30 10:29:26;;;;;;;4.90;4.40;;;;;;;15.55;85.31;101226.97;5073622;28;20103;-40
2021/06/30 10:31:56;;;;;;;4.95;4.55;;;;;;;15.56;84.82;101234.88;5073194;28;20032;-40
2021/06/30 10:34:34;;;;;;;5.45;4.60;;;;;;;15.64;84.93;101233.63;5072781;28;20383;-40
2021/06/30 10:36:59;;;;;;;4.70;4.30;;;;;;;15.73;84.97;101228.56;5073387;28;20020;-40
2021/06/30 10:39:36;;;;;;;4.90;4.50;;;;;;;15.90;85.08;101226.56;5072747;28;20548;-40
2021/06/30 10:42:22;;;;;;;5.78;5.22;;;;;;;16.05;84.87;101223.97;5073078;28;20027;-40
2021/06/30 10:44:53;;;;;;;10.85;9.93;;;;;;;16.15;84.97;101223.25;5073183;28;20514;-40
2021/06/30 10:47:29;;;;;;;5.45;5.05;;;;;;;16.19;83.64;101219.75;5073038;28;20017;-40
2021/06/30 10:50:19;;;;;;;5.57;5.07;;;;;;;16.15;83.73;101234.16;5072897;28;20016;-40
2021/06/30 10:52:55;;;;;;;5.22;4.75;;;;;;;16.16;84.65;101220.28;5072903;28;20031;-40
2021/06/30 10:55:36;;;;;;;6.47;5.82;;;;;;;16.21;84.71;101217.59;5072734;28;20551;-40
2021/06/30 10:58:10;;;;;;;5.95;5.18;;;;;;;16.29;84.34;101213.53;5072864;28;20078;-40
2021/06/30 11:00:46;;;;;;;5.63;5.13;;;;;;;16.46;84.09;101214.25;5073153;28;20021;-40
2021/06/30 11:03:42;;;;;;;5.05;4.55;;;;;;;16.65;83.04;101209.19;5073102;28;20358;-40
2021/06/30 11:06:12;;;;;;;4.47;4.07;;;;;;;16.67;82.83;101215.22;5073114;28;20066;-40
2021/06/30 11:08:49;;;;;;;4.53;4.10;;;;;;;16.51;80.88;101213.47;5072688;28;20028;-41
2021/06/30 11:11:38;;;;;;;4.47;3.85;;;;;;;16.51;83.07;101218.09;5072984;28;20073;-40
2021/06/30 11:14:10;;;;;;;4.43;3.95;;;;;;;16.56;83.22;101224.44;5072911;28;20056;-40
2021/06/30 11:16:48;;;;;;;4.38;3.97;;;;;;;16.48;82.70;101227.63;5072741;28;20461;-40
2021/06/30 11:19:19;;;;;;;4.82;4.43;;;;;;;16.54;81.95;101232.03;5072827;28;20391;-40
2021/06/30 11:21:52;;;;;;;4.45;4.03;;;;;;;16.66;81.59;101234.59;5075978;28;20038;-40
2021/06/30 11:24:36;;;;;;;3.65;3.35;;;;;;;16.56;80.46;101235.34;5076291;28;20057;-40
2021/06/30 11:27:07;;;;;;;3.97;3.67;;;;;;;16.32;81.86;101239.50;5076635;28;20029;-40
2021/06/30 11:30:05;;;;;;;3.75;3.35;;;;;;;16.25;81.55;101239.72;5076387;28;20525;-40
2021/06/30 11:32:31;;;;;;;3.90;3.60;;;;;;;16.07;81.61;101240.91;5076546;28;20036;-40
2021/06/30 11:35:02;;;;;;;4.40;3.90;;;;;;;16.12;82.49;101240.97;5075686;28;20028;-40